sensor_id;sensor_type;location;lat;lon;timestamp;P1;durP1;ratioP1;P2;durP2;ratioP2
41568;SDS011;27283;52.504;13.358;2023-04-03T00:00:46;8.82;;;2.35;;
41568;SDS011;27283;52.504;13.358;2023-04-03T00:03:18;8.60;;;2.10;;
41568;SDS011;27283;52.504;13.358;2023-04-03T00:05:51;8.90;;;2.10;;
41568;SDS011;27283;52.504;13.358;2023-04-03T00:08:26;12.18;;;2.35;;
41568;SDS011;27283;52.504;13.358;2023-04-03T00:10:59;10.07;;;2.38;;
41568;SDS011;27283;52.504;13.358;2023-04-03T00:13:32;8.63;;;2.38;;
41568;SDS011;27283;52.504;13.358;2023-04-03T00:16:05;8.75;;;2.25;;
41568;SDS011;27283;52.504;13.358;2023-04-03T00:18:39;11.98;;;2.30;;
41568;SDS011;27283;52.504;13.358;2023-04-03T00:21:12;7.95;;;2.65;;
41568;SDS011;27283;52.504;13.358;2023-04-03T00:23:47;8.85;;;2.38;;
41568;SDS011;27283;52.504;13.358;2023-04-03T00:26:20;11.43;;;2.65;;
41568;SDS011;27283;52.504;13.358;2023-04-03T00:28:55;8.82;;;2.35;;
41568;SDS011;27283;52.504;13.358;2023-04-03T00:31:27;10.07;;;2.60;;
41568;SDS011;27283;52.504;13.358;2023-04-03T00:33:59;5.00;;;2.08;;
41568;SDS011;27283;52.504;13.358;2023-04-03T00:36:32;6.63;;;2.28;;
41568;SDS011;27283;52.504;13.358;2023-04-03T00:39:07;9.25;;;2.28;;
41568;SDS011;27283;52.504;13.358;2023-04-03T00:41:40;9.68;;;2.38;;
41568;SDS011;27283;52.504;13.358;2023-04-03T00:44:21;8.82;;;2.38;;
41568;SDS011;27283;52.504;13.358;2023-04-03T00:47:15;9.10;;;1.90;;
41568;SDS011;27283;52.504;13.358;2023-04-03T00:49:49;7.88;;;2.55;;
41568;SDS011;27283;52.504;13.358;2023-04-03T00:52:23;11.27;;;2.38;;
41568;SDS011;27283;52.504;13.358;2023-04-03T00:55:04;9.38;;;2.20;;
41568;SDS011;27283;52.504;13.358;2023-04-03T00:57:40;5.82;;;1.90;;
41568;SDS011;27283;52.504;13.358;2023-04-03T01:00:14;5.35;;;2.60;;
41568;SDS011;27283;52.504;13.358;2023-04-03T01:02:51;10.93;;;2.53;;
41568;SDS011;27283;52.504;13.358;2023-04-03T01:05:23;4.75;;;1.98;;
41568;SDS011;27283;52.504;13.358;2023-04-03T01:07:56;6.95;;;2.40;;
41568;SDS011;27283;52.504;13.358;2023-04-03T01:10:32;7.68;;;2.35;;
41568;SDS011;27283;52.504;13.358;2023-04-03T01:13:16;11.38;;;2.50;;
41568;SDS011;27283;52.504;13.358;2023-04-03T01:15:51;9.68;;;2.40;;
41568;SDS011;27283;52.504;13.358;2023-04-03T01:18:24;10.45;;;2.78;;
41568;SDS011;27283;52.504;13.358;2023-04-03T01:24:22;7.65;;;2.35;;
41568;SDS011;27283;52.504;13.358;2023-04-03T01:27:06;8.80;;;2.40;;
41568;SDS011;27283;52.504;13.358;2023-04-03T01:29:40;8.73;;;2.50;;
41568;SDS011;27283;52.504;13.358;2023-04-03T01:32:17;8.40;;;2.45;;
41568;SDS011;27283;52.504;13.358;2023-04-03T01:34:49;9.98;;;2.55;;
41568;SDS011;27283;52.504;13.358;2023-04-03T01:37:21;7.85;;;2.33;;
41568;SDS011;27283;52.504;13.358;2023-04-03T01:39:53;9.65;;;2.70;;
41568;SDS011;27283;52.504;13.358;2023-04-03T01:42:25;10.48;;;2.35;;
41568;SDS011;27283;52.504;13.358;2023-04-03T01:44:58;5.45;;;2.28;;
41568;SDS011;27283;52.504;13.358;2023-04-03T01:47:32;10.32;;;2.92;;
41568;SDS011;27283;52.504;13.358;2023-04-03T01:50:05;9.77;;;2.08;;
41568;SDS011;27283;52.504;13.358;2023-04-03T01:52:37;12.68;;;2.40;;
41568;SDS011;27283;52.504;13.358;2023-04-03T01:55:12;11.55;;;2.55;;
41568;SDS011;27283;52.504;13.358;2023-04-03T01:57:44;8.20;;;2.30;;
41568;SDS011;27283;52.504;13.358;2023-04-03T02:00:19;11.48;;;2.80;;
41568;SDS011;27283;52.504;13.358;2023-04-03T02:03:01;13.43;;;2.78;;
41568;SDS011;27283;52.504;13.358;2023-04-03T02:05:34;8.02;;;2.40;;
41568;SDS011;27283;52.504;13.358;2023-04-03T02:08:06;10.52;;;2.50;;
41568;SDS011;27283;52.504;13.358;2023-04-03T02:10:38;12.30;;;2.97;;
41568;SDS011;27283;52.504;13.358;2023-04-03T02:13:10;12.88;;;2.50;;
41568;SDS011;27283;52.504;13.358;2023-04-03T02:15:43;7.43;;;2.25;;
41568;SDS011;27283;52.504;13.358;2023-04-03T02:18:17;8.45;;;2.45;;
41568;SDS011;27283;52.504;13.358;2023-04-03T02:20:50;11.30;;;2.55;;
41568;SDS011;27283;52.504;13.358;2023-04-03T02:23:22;8.35;;;2.50;;
41568;SDS011;27283;52.504;13.358;2023-04-03T02:26:01;8.77;;;2.80;;
41568;SDS011;27283;52.504;13.358;2023-04-03T02:28:35;5.90;;;2.47;;
41568;SDS011;27283;52.504;13.358;2023-04-03T02:31:08;9.25;;;2.83;;
41568;SDS011;27283;52.504;13.358;2023-04-03T02:33:44;8.55;;;2.38;;
41568;SDS011;27283;52.504;13.358;2023-04-03T02:36:16;9.70;;;2.45;;
41568;SDS011;27283;52.504;13.358;2023-04-03T02:38:48;4.88;;;1.95;;
41568;SDS011;27283;52.504;13.358;2023-04-03T02:41:20;8.40;;;2.15;;
41568;SDS011;27283;52.504;13.358;2023-04-03T02:43:54;9.57;;;2.10;;
41568;SDS011;27283;52.504;13.358;2023-04-03T02:46:30;8.85;;;2.15;;
41568;SDS011;27283;52.504;13.358;2023-04-03T02:50:10;9.40;;;2.30;;
41568;SDS011;27283;52.504;13.358;2023-04-03T02:52:43;11.48;;;2.67;;
41568;SDS011;27283;52.504;13.358;2023-04-03T02:55:15;10.90;;;2.42;;
41568;SDS011;27283;52.504;13.358;2023-04-03T02:57:47;9.77;;;2.85;;
41568;SDS011;27283;52.504;13.358;2023-04-03T03:00:28;8.75;;;2.50;;
41568;SDS011;27283;52.504;13.358;2023-04-03T03:03:57;10.23;;;2.20;;
41568;SDS011;27283;52.504;13.358;2023-04-03T03:06:33;10.05;;;2.20;;
41568;SDS011;27283;52.504;13.358;2023-04-03T03:09:05;14.00;;;2.95;;
41568;SDS011;27283;52.504;13.358;2023-04-03T03:11:37;5.82;;;2.08;;
41568;SDS011;27283;52.504;13.358;2023-04-03T03:14:12;8.98;;;2.53;;
41568;SDS011;27283;52.504;13.358;2023-04-03T03:16:47;6.65;;;2.20;;
41568;SDS011;27283;52.504;13.358;2023-04-03T03:19:19;12.25;;;2.75;;
41568;SDS011;27283;52.504;13.358;2023-04-03T03:21:57;9.65;;;2.53;;
41568;SDS011;27283;52.504;13.358;2023-04-03T03:24:29;10.32;;;2.65;;
41568;SDS011;27283;52.504;13.358;2023-04-03T03:27:02;7.65;;;2.53;;
41568;SDS011;27283;52.504;13.358;2023-04-03T03:29:34;7.35;;;2.25;;
41568;SDS011;27283;52.504;13.358;2023-04-03T03:32:06;8.35;;;2.65;;
41568;SDS011;27283;52.504;13.358;2023-04-03T03:34:38;8.18;;;2.58;;
41568;SDS011;27283;52.504;13.358;2023-04-03T03:37:13;9.00;;;2.58;;
41568;SDS011;27283;52.504;13.358;2023-04-03T03:39:45;7.38;;;2.38;;
41568;SDS011;27283;52.504;13.358;2023-04-03T03:42:17;9.80;;;2.50;;
41568;SDS011;27283;52.504;13.358;2023-04-03T03:44:49;7.78;;;2.50;;
41568;SDS011;27283;52.504;13.358;2023-04-03T03:47:21;15.63;;;2.92;;
41568;SDS011;27283;52.504;13.358;2023-04-03T03:49:53;15.73;;;3.15;;
41568;SDS011;27283;52.504;13.358;2023-04-03T03:55:02;8.15;;;2.50;;
41568;SDS011;27283;52.504;13.358;2023-04-03T03:57:35;11.32;;;2.70;;
41568;SDS011;27283;52.504;13.358;2023-04-03T04:00:07;9.63;;;2.45;;
41568;SDS011;27283;52.504;13.358;2023-04-03T04:02:40;7.50;;;2.60;;
41568;SDS011;27283;52.504;13.358;2023-04-03T04:05:12;9.27;;;2.50;;
41568;SDS011;27283;52.504;13.358;2023-04-03T04:07:47;8.23;;;2.47;;
41568;SDS011;27283;52.504;13.358;2023-04-03T04:10:19;11.57;;;2.80;;
41568;SDS011;27283;52.504;13.358;2023-04-03T04:12:51;7.80;;;2.40;;
41568;SDS011;27283;52.504;13.358;2023-04-03T04:15:25;8.70;;;3.05;;
41568;SDS011;27283;52.504;13.358;2023-04-03T04:17:57;10.18;;;2.42;;
41568;SDS011;27283;52.504;13.358;2023-04-03T04:20:28;10.30;;;2.33;;
41568;SDS011;27283;52.504;13.358;2023-04-03T04:23:03;7.90;;;2.45;;
41568;SDS011;27283;52.504;13.358;2023-04-03T04:25:35;8.57;;;2.30;;
41568;SDS011;27283;52.504;13.358;2023-04-03T04:28:07;10.77;;;2.42;;
41568;SDS011;27283;52.504;13.358;2023-04-03T04:30:39;8.02;;;2.55;;
41568;SDS011;27283;52.504;13.358;2023-04-03T04:33:11;11.27;;;2.50;;
41568;SDS011;27283;52.504;13.358;2023-04-03T04:35:43;7.82;;;2.42;;
41568;SDS011;27283;52.504;13.358;2023-04-03T04:38:18;11.10;;;2.40;;
41568;SDS011;27283;52.504;13.358;2023-04-03T04:40:49;8.27;;;2.40;;
41568;SDS011;27283;52.504;13.358;2023-04-03T04:43:21;8.60;;;2.67;;
41568;SDS011;27283;52.504;13.358;2023-04-03T04:46:01;9.55;;;2.15;;
41568;SDS011;27283;52.504;13.358;2023-04-03T04:48:34;7.00;;;2.22;;
41568;SDS011;27283;52.504;13.358;2023-04-03T04:51:06;12.98;;;2.45;;
41568;SDS011;27283;52.504;13.358;2023-04-03T04:53:41;14.15;;;2.22;;
41568;SDS011;27283;52.504;13.358;2023-04-03T04:56:13;9.63;;;2.50;;
41568;SDS011;27283;52.504;13.358;2023-04-03T04:58:46;8.55;;;2.65;;
41568;SDS011;27283;52.504;13.358;2023-04-03T05:01:18;9.98;;;2.58;;
41568;SDS011;27283;52.504;13.358;2023-04-03T05:03:50;9.57;;;2.60;;
41568;SDS011;27283;52.504;13.358;2023-04-03T05:06:49;11.63;;;3.10;;
41568;SDS011;27283;52.504;13.358;2023-04-03T05:09:23;14.32;;;2.80;;
41568;SDS011;27283;52.504;13.358;2023-04-03T05:11:55;9.40;;;2.15;;
41568;SDS011;27283;52.504;13.358;2023-04-03T05:14:27;12.05;;;2.30;;
41568;SDS011;27283;52.504;13.358;2023-04-03T05:16:59;9.05;;;2.05;;
41568;SDS011;27283;52.504;13.358;2023-04-03T05:19:31;14.52;;;2.90;;
41568;SDS011;27283;52.504;13.358;2023-04-03T05:22:03;10.35;;;3.03;;
41568;SDS011;27283;52.504;13.358;2023-04-03T05:24:38;12.18;;;2.83;;
41568;SDS011;27283;52.504;13.358;2023-04-03T05:27:10;8.95;;;2.30;;
41568;SDS011;27283;52.504;13.358;2023-04-03T05:33:08;10.23;;;2.42;;
41568;SDS011;27283;52.504;13.358;2023-04-03T05:36:33;9.18;;;2.33;;
41568;SDS011;27283;52.504;13.358;2023-04-03T05:39:09;8.32;;;2.70;;
41568;SDS011;27283;52.504;13.358;2023-04-03T05:41:55;7.15;;;2.58;;
41568;SDS011;27283;52.504;13.358;2023-04-03T05:45:09;9.23;;;2.33;;
41568;SDS011;27283;52.504;13.358;2023-04-03T05:47:41;6.90;;;2.30;;
41568;SDS011;27283;52.504;13.358;2023-04-03T05:50:14;9.02;;;2.63;;
41568;SDS011;27283;52.504;13.358;2023-04-03T05:52:46;8.10;;;2.42;;
41568;SDS011;27283;52.504;13.358;2023-04-03T05:55:21;12.15;;;2.70;;
41568;SDS011;27283;52.504;13.358;2023-04-03T05:57:55;9.35;;;2.40;;
41568;SDS011;27283;52.504;13.358;2023-04-03T06:00:28;12.07;;;2.70;;
41568;SDS011;27283;52.504;13.358;2023-04-03T06:03:00;7.55;;;2.33;;
41568;SDS011;27283;52.504;13.358;2023-04-03T06:05:33;13.25;;;2.60;;
41568;SDS011;27283;52.504;13.358;2023-04-03T06:08:06;8.68;;;2.63;;
41568;SDS011;27283;52.504;13.358;2023-04-03T06:10:38;9.73;;;2.50;;
41568;SDS011;27283;52.504;13.358;2023-04-03T06:13:15;8.95;;;2.72;;
41568;SDS011;27283;52.504;13.358;2023-04-03T06:15:48;7.70;;;2.63;;
41568;SDS011;27283;52.504;13.358;2023-04-03T06:18:21;8.48;;;2.60;;
41568;SDS011;27283;52.504;13.358;2023-04-03T06:20:54;12.20;;;2.40;;
41568;SDS011;27283;52.504;13.358;2023-04-03T06:23:26;10.23;;;2.55;;
41568;SDS011;27283;52.504;13.358;2023-04-03T06:25:59;9.05;;;2.88;;
41568;SDS011;27283;52.504;13.358;2023-04-03T06:28:33;8.25;;;2.33;;
41568;SDS011;27283;52.504;13.358;2023-04-03T06:31:06;8.50;;;2.20;;
41568;SDS011;27283;52.504;13.358;2023-04-03T06:33:38;12.23;;;2.75;;
41568;SDS011;27283;52.504;13.358;2023-04-03T06:36:12;9.85;;;2.20;;
41568;SDS011;27283;52.504;13.358;2023-04-03T06:38:48;6.15;;;2.17;;
41568;SDS011;27283;52.504;13.358;2023-04-03T06:41:20;9.13;;;2.55;;
41568;SDS011;27283;52.504;13.358;2023-04-03T06:43:57;9.45;;;2.25;;
41568;SDS011;27283;52.504;13.358;2023-04-03T06:46:32;9.35;;;2.05;;
41568;SDS011;27283;52.504;13.358;2023-04-03T06:49:04;6.93;;;2.00;;
41568;SDS011;27283;52.504;13.358;2023-04-03T06:51:36;10.52;;;2.22;;
41568;SDS011;27283;52.504;13.358;2023-04-03T06:54:08;7.95;;;2.47;;
41568;SDS011;27283;52.504;13.358;2023-04-03T06:56:41;8.07;;;1.95;;
41568;SDS011;27283;52.504;13.358;2023-04-03T06:59:18;6.05;;;1.92;;
41568;SDS011;27283;52.504;13.358;2023-04-03T07:01:51;6.88;;;1.85;;
41568;SDS011;27283;52.504;13.358;2023-04-03T07:04:23;6.55;;;1.65;;
41568;SDS011;27283;52.504;13.358;2023-04-03T07:06:56;9.05;;;2.03;;
41568;SDS011;27283;52.504;13.358;2023-04-03T07:09:28;6.53;;;1.92;;
41568;SDS011;27283;52.504;13.358;2023-04-03T07:12:01;5.85;;;1.92;;
41568;SDS011;27283;52.504;13.358;2023-04-03T07:14:36;8.52;;;1.92;;
41568;SDS011;27283;52.504;13.358;2023-04-03T07:17:09;7.78;;;2.10;;
41568;SDS011;27283;52.504;13.358;2023-04-03T07:19:41;6.32;;;1.65;;
41568;SDS011;27283;52.504;13.358;2023-04-03T07:22:13;6.53;;;1.30;;
41568;SDS011;27283;52.504;13.358;2023-04-03T07:24:46;5.63;;;1.58;;
41568;SDS011;27283;52.504;13.358;2023-04-03T07:27:18;6.00;;;1.60;;
41568;SDS011;27283;52.504;13.358;2023-04-03T07:29:53;7.45;;;1.55;;
41568;SDS011;27283;52.504;13.358;2023-04-03T07:32:25;5.78;;;1.80;;
41568;SDS011;27283;52.504;13.358;2023-04-03T07:34:58;7.03;;;1.63;;
41568;SDS011;27283;52.504;13.358;2023-04-03T07:37:31;5.65;;;1.85;;
41568;SDS011;27283;52.504;13.358;2023-04-03T07:40:04;8.48;;;1.98;;
41568;SDS011;27283;52.504;13.358;2023-04-03T07:42:37;2.65;;;1.17;;
41568;SDS011;27283;52.504;13.358;2023-04-03T07:45:13;4.28;;;1.42;;
41568;SDS011;27283;52.504;13.358;2023-04-03T07:47:46;6.32;;;1.45;;
41568;SDS011;27283;52.504;13.358;2023-04-03T07:50:19;5.50;;;1.75;;
41568;SDS011;27283;52.504;13.358;2023-04-03T07:52:51;3.35;;;1.60;;
41568;SDS011;27283;52.504;13.358;2023-04-03T07:55:24;7.07;;;1.80;;
41568;SDS011;27283;52.504;13.358;2023-04-03T07:57:57;6.50;;;1.83;;
41568;SDS011;27283;52.504;13.358;2023-04-03T08:00:32;5.93;;;1.60;;
41568;SDS011;27283;52.504;13.358;2023-04-03T08:03:05;4.70;;;1.67;;
41568;SDS011;27283;52.504;13.358;2023-04-03T08:05:40;6.65;;;1.50;;
41568;SDS011;27283;52.504;13.358;2023-04-03T08:08:14;7.53;;;1.65;;
41568;SDS011;27283;52.504;13.358;2023-04-03T08:10:49;9.25;;;1.80;;
41568;SDS011;27283;52.504;13.358;2023-04-03T08:13:22;3.75;;;1.50;;
41568;SDS011;27283;52.504;13.358;2023-04-03T08:15:56;8.45;;;1.80;;
41568;SDS011;27283;52.504;13.358;2023-04-03T08:18:29;6.43;;;1.63;;
41568;SDS011;27283;52.504;13.358;2023-04-03T08:21:04;9.35;;;2.00;;
41568;SDS011;27283;52.504;13.358;2023-04-03T08:23:38;4.13;;;1.58;;
41568;SDS011;27283;52.504;13.358;2023-04-03T08:26:11;5.10;;;1.58;;
41568;SDS011;27283;52.504;13.358;2023-04-03T08:28:45;4.85;;;1.65;;
41568;SDS011;27283;52.504;13.358;2023-04-03T08:31:19;5.55;;;1.50;;
41568;SDS011;27283;52.504;13.358;2023-04-03T08:33:52;5.18;;;1.70;;
41568;SDS011;27283;52.504;13.358;2023-04-03T08:36:25;7.22;;;1.50;;
41568;SDS011;27283;52.504;13.358;2023-04-03T08:38:59;7.90;;;1.80;;
41568;SDS011;27283;52.504;13.358;2023-04-03T08:41:32;3.33;;;1.50;;
41568;SDS011;27283;52.504;13.358;2023-04-03T08:44:12;6.38;;;1.80;;
41568;SDS011;27283;52.504;13.358;2023-04-03T08:46:59;6.72;;;1.80;;
41568;SDS011;27283;52.504;13.358;2023-04-03T08:49:43;6.45;;;1.95;;
41568;SDS011;27283;52.504;13.358;2023-04-03T08:52:23;6.57;;;1.58;;
41568;SDS011;27283;52.504;13.358;2023-04-03T08:55:06;6.43;;;1.83;;
41568;SDS011;27283;52.504;13.358;2023-04-03T08:57:48;5.53;;;1.60;;
41568;SDS011;27283;52.504;13.358;2023-04-03T09:00:32;6.10;;;1.60;;
41568;SDS011;27283;52.504;13.358;2023-04-03T09:03:20;5.88;;;1.75;;
41568;SDS011;27283;52.504;13.358;2023-04-03T09:05:57;7.93;;;1.63;;
41568;SDS011;27283;52.504;13.358;2023-04-03T09:08:40;8.60;;;2.05;;
41568;SDS011;27283;52.504;13.358;2023-04-03T09:11:21;4.03;;;1.55;;
41568;SDS011;27283;52.504;13.358;2023-04-03T09:14:02;5.82;;;1.73;;
41568;SDS011;27283;52.504;13.358;2023-04-03T09:16:46;4.68;;;1.67;;
41568;SDS011;27283;52.504;13.358;2023-04-03T09:19:32;5.50;;;1.65;;
41568;SDS011;27283;52.504;13.358;2023-04-03T09:22:16;4.47;;;1.42;;
41568;SDS011;27283;52.504;13.358;2023-04-03T09:24:55;3.80;;;1.60;;
41568;SDS011;27283;52.504;13.358;2023-04-03T09:27:31;4.13;;;1.70;;
41568;SDS011;27283;52.504;13.358;2023-04-03T09:30:04;4.07;;;1.60;;
41568;SDS011;27283;52.504;13.358;2023-04-03T09:32:37;4.93;;;1.80;;
41568;SDS011;27283;52.504;13.358;2023-04-03T09:35:18;2.70;;;1.55;;
41568;SDS011;27283;52.504;13.358;2023-04-03T09:38:16;3.80;;;1.70;;
41568;SDS011;27283;52.504;13.358;2023-04-03T09:40:50;4.50;;;2.03;;
41568;SDS011;27283;52.504;13.358;2023-04-03T09:43:37;6.57;;;1.65;;
41568;SDS011;27283;52.504;13.358;2023-04-03T09:46:18;2.95;;;1.48;;
41568;SDS011;27283;52.504;13.358;2023-04-03T09:49:01;3.95;;;1.00;;
41568;SDS011;27283;52.504;13.358;2023-04-03T09:51:39;6.20;;;1.70;;
41568;SDS011;27283;52.504;13.358;2023-04-03T09:54:29;4.57;;;1.52;;
41568;SDS011;27283;52.504;13.358;2023-04-03T09:57:09;4.93;;;1.45;;
41568;SDS011;27283;52.504;13.358;2023-04-03T09:59:56;4.07;;;1.50;;
41568;SDS011;27283;52.504;13.358;2023-04-03T10:02:35;5.70;;;1.80;;
41568;SDS011;27283;52.504;13.358;2023-04-03T10:05:26;4.82;;;1.70;;
41568;SDS011;27283;52.504;13.358;2023-04-03T10:08:19;3.15;;;1.40;;
41568;SDS011;27283;52.504;13.358;2023-04-03T10:13:51;6.63;;;1.50;;
41568;SDS011;27283;52.504;13.358;2023-04-03T10:16:30;6.35;;;1.60;;
41568;SDS011;27283;52.504;13.358;2023-04-03T10:22:10;2.97;;;1.40;;
41568;SDS011;27283;52.504;13.358;2023-04-03T10:24:51;6.22;;;1.77;;
41568;SDS011;27283;52.504;13.358;2023-04-03T10:27:36;4.15;;;1.70;;
41568;SDS011;27283;52.504;13.358;2023-04-03T10:30:22;4.18;;;1.25;;
41568;SDS011;27283;52.504;13.358;2023-04-03T10:33:26;5.22;;;1.52;;
41568;SDS011;27283;52.504;13.358;2023-04-03T10:36:18;3.08;;;1.40;;
41568;SDS011;27283;52.504;13.358;2023-04-03T10:39:01;3.13;;;1.35;;
41568;SDS011;27283;52.504;13.358;2023-04-03T10:41:46;4.18;;;1.40;;
41568;SDS011;27283;52.504;13.358;2023-04-03T10:44:49;4.13;;;1.40;;
41568;SDS011;27283;52.504;13.358;2023-04-03T10:47:28;3.15;;;1.27;;
41568;SDS011;27283;52.504;13.358;2023-04-03T10:50:15;3.67;;;1.55;;
41568;SDS011;27283;52.504;13.358;2023-04-03T10:53:01;2.80;;;1.30;;
41568;SDS011;27283;52.504;13.358;2023-04-03T10:55:37;2.75;;;1.30;;
41568;SDS011;27283;52.504;13.358;2023-04-03T10:58:21;3.08;;;1.27;;
41568;SDS011;27283;52.504;13.358;2023-04-03T11:01:01;3.58;;;1.50;;
41568;SDS011;27283;52.504;13.358;2023-04-03T11:03:40;3.90;;;1.20;;
41568;SDS011;27283;52.504;13.358;2023-04-03T11:06:18;5.25;;;1.60;;
41568;SDS011;27283;52.504;13.358;2023-04-03T11:08:55;5.60;;;1.50;;
41568;SDS011;27283;52.504;13.358;2023-04-03T11:11:38;3.33;;;1.10;;
41568;SDS011;27283;52.504;13.358;2023-04-03T11:14:17;4.85;;;1.33;;
41568;SDS011;27283;52.504;13.358;2023-04-03T11:17:04;1.70;;;1.10;;
41568;SDS011;27283;52.504;13.358;2023-04-03T11:19:44;3.53;;;1.40;;
41568;SDS011;27283;52.504;13.358;2023-04-03T11:22:25;5.40;;;1.70;;
41568;SDS011;27283;52.504;13.358;2023-04-03T11:25:03;5.32;;;1.38;;
41568;SDS011;27283;52.504;13.358;2023-04-03T11:27:47;5.18;;;1.50;;
41568;SDS011;27283;52.504;13.358;2023-04-03T11:30:30;3.65;;;1.30;;
41568;SDS011;27283;52.504;13.358;2023-04-03T11:33:17;3.08;;;1.50;;
41568;SDS011;27283;52.504;13.358;2023-04-03T11:36:00;5.97;;;1.65;;
41568;SDS011;27283;52.504;13.358;2023-04-03T11:38:52;5.75;;;1.50;;
41568;SDS011;27283;52.504;13.358;2023-04-03T11:41:28;2.78;;;1.30;;
41568;SDS011;27283;52.504;13.358;2023-04-03T11:44:03;2.65;;;1.30;;
41568;SDS011;27283;52.504;13.358;2023-04-03T11:46:53;4.47;;;1.45;;
41568;SDS011;27283;52.504;13.358;2023-04-03T11:55:42;4.47;;;1.50;;
41568;SDS011;27283;52.504;13.358;2023-04-03T11:58:29;4.90;;;1.60;;
41568;SDS011;27283;52.504;13.358;2023-04-03T12:01:08;6.78;;;1.70;;
41568;SDS011;27283;52.504;13.358;2023-04-03T12:09:56;3.40;;;1.40;;
41568;SDS011;27283;52.504;13.358;2023-04-03T12:12:30;6.07;;;1.50;;
41568;SDS011;27283;52.504;13.358;2023-04-03T12:17:58;5.57;;;1.60;;
41568;SDS011;27283;52.504;13.358;2023-04-03T12:23:31;4.55;;;1.35;;
41568;SDS011;27283;52.504;13.358;2023-04-03T12:26:19;3.58;;;1.50;;
41568;SDS011;27283;52.504;13.358;2023-04-03T12:29:10;5.18;;;1.50;;
41568;SDS011;27283;52.504;13.358;2023-04-03T12:31:54;4.70;;;1.40;;
41568;SDS011;27283;52.504;13.358;2023-04-03T12:37:44;5.13;;;1.80;;
41568;SDS011;27283;52.504;13.358;2023-04-03T12:40:37;5.63;;;1.50;;
41568;SDS011;27283;52.504;13.358;2023-04-03T12:43:20;4.68;;;1.67;;
41568;SDS011;27283;52.504;13.358;2023-04-03T12:46:10;4.70;;;1.50;;
41568;SDS011;27283;52.504;13.358;2023-04-03T12:48:48;3.10;;;1.40;;
41568;SDS011;27283;52.504;13.358;2023-04-03T12:51:26;2.78;;;1.42;;
41568;SDS011;27283;52.504;13.358;2023-04-03T12:54:15;3.10;;;1.48;;
41568;SDS011;27283;52.504;13.358;2023-04-03T12:56:52;6.70;;;1.50;;
41568;SDS011;27283;52.504;13.358;2023-04-03T12:59:39;4.93;;;1.40;;
41568;SDS011;27283;52.504;13.358;2023-04-03T13:02:19;4.43;;;1.45;;
41568;SDS011;27283;52.504;13.358;2023-04-03T13:04:57;3.17;;;1.23;;
41568;SDS011;27283;52.504;13.358;2023-04-03T13:07:32;3.33;;;1.50;;
41568;SDS011;27283;52.504;13.358;2023-04-03T13:10:16;3.22;;;1.40;;
41568;SDS011;27283;52.504;13.358;2023-04-03T13:12:51;3.03;;;1.20;;
41568;SDS011;27283;52.504;13.358;2023-04-03T13:15:26;3.60;;;1.50;;
41568;SDS011;27283;52.504;13.358;2023-04-03T13:18:01;4.13;;;1.40;;
41568;SDS011;27283;52.504;13.358;2023-04-03T13:20:35;3.40;;;1.50;;
41568;SDS011;27283;52.504;13.358;2023-04-03T13:23:10;3.72;;;2.00;;
41568;SDS011;27283;52.504;13.358;2023-04-03T13:25:50;3.10;;;1.42;;
41568;SDS011;27283;52.504;13.358;2023-04-03T13:28:23;6.20;;;1.60;;
41568;SDS011;27283;52.504;13.358;2023-04-03T13:30:59;3.90;;;1.48;;
41568;SDS011;27283;52.504;13.358;2023-04-03T13:33:36;7.03;;;1.60;;
41568;SDS011;27283;52.504;13.358;2023-04-03T13:36:11;6.13;;;1.55;;
41568;SDS011;27283;52.504;13.358;2023-04-03T13:38:57;5.45;;;1.48;;
41568;SDS011;27283;52.504;13.358;2023-04-03T13:41:34;4.28;;;1.50;;
41568;SDS011;27283;52.504;13.358;2023-04-03T13:44:25;5.47;;;1.63;;
41568;SDS011;27283;52.504;13.358;2023-04-03T13:47:14;5.40;;;1.40;;
41568;SDS011;27283;52.504;13.358;2023-04-03T13:49:59;4.78;;;1.40;;
41568;SDS011;27283;52.504;13.358;2023-04-03T13:52:38;5.82;;;1.75;;
41568;SDS011;27283;52.504;13.358;2023-04-03T13:55:19;4.78;;;1.50;;
41568;SDS011;27283;52.504;13.358;2023-04-03T13:57:58;2.40;;;1.52;;
41568;SDS011;27283;52.504;13.358;2023-04-03T14:00:34;4.10;;;1.65;;
41568;SDS011;27283;52.504;13.358;2023-04-03T14:03:13;2.92;;;1.30;;
41568;SDS011;27283;52.504;13.358;2023-04-03T14:05:50;4.85;;;1.50;;
41568;SDS011;27283;52.504;13.358;2023-04-03T14:08:23;5.03;;;1.50;;
41568;SDS011;27283;52.504;13.358;2023-04-03T14:11:13;6.10;;;1.42;;
41568;SDS011;27283;52.504;13.358;2023-04-03T14:13:53;3.67;;;1.10;;
41568;SDS011;27283;52.504;13.358;2023-04-03T14:16:36;6.63;;;1.48;;
41568;SDS011;27283;52.504;13.358;2023-04-03T14:19:14;3.33;;;1.30;;
41568;SDS011;27283;52.504;13.358;2023-04-03T14:21:52;4.13;;;1.50;;
41568;SDS011;27283;52.504;13.358;2023-04-03T14:24:29;5.35;;;1.45;;
41568;SDS011;27283;52.504;13.358;2023-04-03T14:27:05;7.47;;;1.60;;
41568;SDS011;27283;52.504;13.358;2023-04-03T14:29:48;5.30;;;1.70;;
41568;SDS011;27283;52.504;13.358;2023-04-03T14:32:23;4.65;;;1.30;;
41568;SDS011;27283;52.504;13.358;2023-04-03T14:34:57;3.53;;;1.40;;
41568;SDS011;27283;52.504;13.358;2023-04-03T14:37:30;7.75;;;1.67;;
41568;SDS011;27283;52.504;13.358;2023-04-03T14:40:04;3.50;;;1.65;;
41568;SDS011;27283;52.504;13.358;2023-04-03T14:42:40;5.93;;;1.67;;
41568;SDS011;27283;52.504;13.358;2023-04-03T14:45:16;2.85;;;1.55;;
41568;SDS011;27283;52.504;13.358;2023-04-03T14:47:51;3.17;;;1.63;;
41568;SDS011;27283;52.504;13.358;2023-04-03T14:50:37;2.85;;;1.75;;
41568;SDS011;27283;52.504;13.358;2023-04-03T14:53:25;3.05;;;1.42;;
41568;SDS011;27283;52.504;13.358;2023-04-03T14:56:11;3.92;;;1.95;;
41568;SDS011;27283;52.504;13.358;2023-04-03T14:58:45;4.10;;;1.42;;
41568;SDS011;27283;52.504;13.358;2023-04-03T15:01:24;5.80;;;1.92;;
41568;SDS011;27283;52.504;13.358;2023-04-03T15:04:00;3.95;;;1.85;;
41568;SDS011;27283;52.504;13.358;2023-04-03T15:06:37;3.92;;;1.60;;
41568;SDS011;27283;52.504;13.358;2023-04-03T15:09:13;7.53;;;1.40;;
41568;SDS011;27283;52.504;13.358;2023-04-03T15:11:52;4.90;;;1.42;;
41568;SDS011;27283;52.504;13.358;2023-04-03T15:14:26;2.25;;;1.48;;
41568;SDS011;27283;52.504;13.358;2023-04-03T15:17:14;4.43;;;1.52;;
41568;SDS011;27283;52.504;13.358;2023-04-03T15:19:48;3.33;;;1.52;;
41568;SDS011;27283;52.504;13.358;2023-04-03T15:22:21;4.47;;;1.50;;
41568;SDS011;27283;52.504;13.358;2023-04-03T15:24:54;5.40;;;1.48;;
41568;SDS011;27283;52.504;13.358;2023-04-03T15:27:26;5.13;;;1.40;;
41568;SDS011;27283;52.504;13.358;2023-04-03T15:30:00;5.82;;;1.65;;
41568;SDS011;27283;52.504;13.358;2023-04-03T15:32:35;5.03;;;1.50;;
41568;SDS011;27283;52.504;13.358;2023-04-03T15:35:08;7.85;;;1.70;;
41568;SDS011;27283;52.504;13.358;2023-04-03T15:37:41;3.00;;;1.63;;
41568;SDS011;27283;52.504;13.358;2023-04-03T15:40:15;4.43;;;1.90;;
41568;SDS011;27283;52.504;13.358;2023-04-03T15:42:48;4.10;;;1.58;;
41568;SDS011;27283;52.504;13.358;2023-04-03T15:45:22;3.80;;;1.40;;
41568;SDS011;27283;52.504;13.358;2023-04-03T15:47:58;5.75;;;1.70;;
41568;SDS011;27283;52.504;13.358;2023-04-03T15:50:33;3.10;;;1.23;;
41568;SDS011;27283;52.504;13.358;2023-04-03T15:53:07;3.83;;;1.60;;
41568;SDS011;27283;52.504;13.358;2023-04-03T15:55:41;3.53;;;1.50;;
41568;SDS011;27283;52.504;13.358;2023-04-03T15:58:14;6.18;;;1.40;;
41568;SDS011;27283;52.504;13.358;2023-04-03T16:00:47;6.95;;;1.50;;
41568;SDS011;27283;52.504;13.358;2023-04-03T16:03:23;6.15;;;1.83;;
41568;SDS011;27283;52.504;13.358;2023-04-03T16:05:57;3.83;;;1.52;;
41568;SDS011;27283;52.504;13.358;2023-04-03T16:08:29;5.60;;;1.40;;